createdAt,value
2023-01-19T00:00:54.514Z,96241.20
2023-01-19T00:03:21.766Z,96242.20
2023-01-19T00:05:49.143Z,96238.60
2023-01-19T00:08:16.869Z,96244.00
2023-01-19T00:10:46.763Z,96245.80
2023-01-19T00:13:14.221Z,96248.40
2023-01-19T00:15:41.819Z,96249.80
2023-01-19T00:18:10.567Z,96250.40
2023-01-19T00:20:38.533Z,96254.80
2023-01-19T00:23:05.780Z,96264.40
2023-01-19T00:25:32.527Z,96267.20
2023-01-19T00:28:01.548Z,96268.00
2023-01-19T00:30:28.899Z,96274.00
2023-01-19T00:32:55.898Z,96269.80
2023-01-19T00:35:22.785Z,96271.80
2023-01-19T00:37:49.706Z,96271.80
2023-01-19T00:40:17.156Z,96269.80
2023-01-19T00:42:44.673Z,96268.80
2023-01-19T00:45:14.591Z,96264.20
2023-01-19T00:47:42.396Z,96263.00
2023-01-19T00:50:14.130Z,96262.80
2023-01-19T00:52:41.652Z,96269.20
2023-01-19T00:55:13.775Z,96267.00
2023-01-19T00:57:41.526Z,96276.20
2023-01-19T01:00:12.237Z,96274.80
2023-01-19T01:02:40.983Z,96278.20
2023-01-19T01:05:08.778Z,96278.60
2023-01-19T01:07:44.710Z,96279.40
2023-01-19T01:10:17.667Z,96282.80
2023-01-19T01:12:54.873Z,96283.40
2023-01-19T01:15:27.205Z,96288.20
2023-01-19T01:17:54.198Z,96291.00
2023-01-19T01:20:28.131Z,96297.60
2023-01-19T01:22:56.959Z,96297.60
2023-01-19T01:25:25.653Z,96307.80
2023-01-19T01:27:53.088Z,96309.40
2023-01-19T01:30:20.857Z,96312.20
2023-01-19T01:32:48.121Z,96310.20
2023-01-19T01:35:15.767Z,96308.20
2023-01-19T01:37:43.143Z,96303.00
2023-01-19T01:40:13.759Z,96305.20
2023-01-19T01:42:40.907Z,96303.40
2023-01-19T01:45:14.172Z,96303.60
2023-01-19T01:47:49.827Z,96310.20
2023-01-19T01:50:23.892Z,96311.60
2023-01-19T01:53:06.819Z,96307.00
2023-01-19T01:55:38.156Z,96310.60
2023-01-19T01:58:06.669Z,96305.00
2023-01-19T02:00:53.475Z,96309.00
2023-01-19T02:03:23.523Z,96309.60
2023-01-19T02:05:51.404Z,96310.00
2023-01-19T02:08:44.590Z,96306.40
2023-01-19T02:11:30.532Z,96298.40
2023-01-19T02:13:57.918Z,96290.60
2023-01-19T02:16:24.762Z,96294.60
2023-01-19T02:18:52.560Z,96297.80
2023-01-19T02:21:19.232Z,96298.40
2023-01-19T02:24:01.630Z,96294.20
2023-01-19T02:26:38.495Z,96295.60
2023-01-19T02:29:11.462Z,96295.60
2023-01-19T02:31:39.718Z,96292.80
2023-01-19T02:34:09.848Z,96295.40
2023-01-19T02:36:52.244Z,96295.60
2023-01-19T02:39:22.866Z,96292.40
2023-01-19T02:41:54.938Z,96286.80
2023-01-19T02:44:23.719Z,96279.00
2023-01-19T02:46:54.376Z,96282.40
2023-01-19T02:49:21.195Z,96283.20
2023-01-19T02:51:48.676Z,96296.60
2023-01-19T02:54:27.683Z,96305.00
2023-01-19T02:57:17.975Z,96310.00
2023-01-19T03:00:02.719Z,96313.80
2023-01-19T03:02:40.588Z,96315.00
2023-01-19T03:05:23.777Z,96318.00
2023-01-19T03:07:53.193Z,96320.80
2023-01-19T03:10:22.980Z,96316.20
2023-01-19T03:13:03.556Z,96315.20
2023-01-19T03:15:42.747Z,96315.00
2023-01-19T03:18:12.354Z,96315.60
2023-01-19T03:20:40.435Z,96313.80
2023-01-19T03:23:12.421Z,96311.80
2023-01-19T03:25:43.589Z,96308.00
2023-01-19T03:28:11.853Z,96307.20
2023-01-19T03:30:42.649Z,96309.80
2023-01-19T03:33:17.353Z,96316.60
2023-01-19T03:35:50.891Z,96317.40
2023-01-19T03:38:25.223Z,96315.40
2023-01-19T03:40:59.020Z,96329.20
2023-01-19T03:43:26.984Z,96327.80
2023-01-19T03:45:55.475Z,96320.60
2023-01-19T03:48:23.233Z,96333.20
2023-01-19T03:50:51.443Z,96340.20
2023-01-19T03:53:20.283Z,96345.80
2023-01-19T03:55:48.578Z,96347.00
2023-01-19T03:58:15.330Z,96346.00
2023-01-19T04:00:42.337Z,96345.80
2023-01-19T04:03:14.952Z,96347.20
2023-01-19T04:05:42.590Z,96350.40
2023-01-19T04:08:10.077Z,96354.60
2023-01-19T04:10:37.094Z,96354.40
2023-01-19T04:13:04.726Z,96355.00
2023-01-19T04:15:32.272Z,96361.60
2023-01-19T04:18:01.035Z,96364.60
2023-01-19T04:20:28.702Z,96364.40
2023-01-19T04:22:59.713Z,96362.00
2023-01-19T04:25:28.252Z,96367.60
2023-01-19T04:27:55.738Z,96370.20
2023-01-19T04:30:22.750Z,96364.60
2023-01-19T04:32:49.626Z,96368.20
2023-01-19T04:35:17.112Z,96378.00
2023-01-19T04:37:45.100Z,96379.60
2023-01-19T04:40:12.406Z,96376.40
2023-01-19T04:42:42.773Z,96381.00
2023-01-19T04:45:10.018Z,96379.00
2023-01-19T04:47:37.597Z,96379.20
2023-01-19T04:50:06.018Z,96380.20
2023-01-19T04:52:35.172Z,96384.60
2023-01-19T04:55:03.671Z,96388.20
2023-01-19T04:57:31.053Z,96392.20
2023-01-19T04:59:58.746Z,96392.20
2023-01-19T05:02:26.362Z,96390.20
2023-01-19T05:04:53.507Z,96392.20
2023-01-19T05:07:20.221Z,96396.80
2023-01-19T05:09:47.042Z,96392.80
2023-01-19T05:12:13.755Z,96396.00
2023-01-19T05:14:40.679Z,96394.80
2023-01-19T05:17:07.483Z,96395.40
2023-01-19T05:19:34.727Z,96397.80
2023-01-19T05:22:06.220Z,96396.60
2023-01-19T05:24:33.281Z,96396.20
2023-01-19T05:27:00.219Z,96403.40
2023-01-19T05:29:27.372Z,96407.00
2023-01-19T05:31:54.152Z,96407.40
2023-01-19T05:34:21.059Z,96410.40
2023-01-19T05:36:47.803Z,96414.60
2023-01-19T05:39:14.637Z,96413.60
2023-01-19T05:41:47.984Z,96417.40
2023-01-19T05:44:14.835Z,96421.20
2023-01-19T05:46:41.604Z,96424.60
2023-01-19T05:49:08.431Z,96424.60
2023-01-19T05:51:38.465Z,96431.20
2023-01-19T05:54:06.247Z,96435.40
2023-01-19T05:56:33.459Z,96443.80
2023-01-19T05:59:00.955Z,96448.20
2023-01-19T06:01:28.333Z,96438.80
2023-01-19T06:03:55.456Z,96448.80
2023-01-19T06:06:22.205Z,96453.60
2023-01-19T06:08:49.022Z,96450.60
2023-01-19T06:11:15.979Z,96459.40
2023-01-19T06:13:42.925Z,96454.60
2023-01-19T06:16:10.664Z,96457.20
2023-01-19T06:18:37.805Z,96467.00
2023-01-19T06:21:07.434Z,96471.60
2023-01-19T06:23:35.194Z,96480.60
2023-01-19T06:26:02.933Z,96481.60
2023-01-19T06:28:30.658Z,96490.00
2023-01-19T06:30:57.754Z,96490.40
2023-01-19T06:33:25.807Z,96492.80
2023-01-19T06:35:52.796Z,96491.40
2023-01-19T06:38:20.003Z,96491.60
2023-01-19T06:40:55.939Z,96497.20
2023-01-19T06:43:22.830Z,96500.40
2023-01-19T06:45:50.302Z,96501.60
2023-01-19T06:48:17.664Z,96508.00
2023-01-19T06:50:46.183Z,96506.40
2023-01-19T06:53:13.808Z,96505.20
2023-01-19T06:55:40.612Z,96505.40
2023-01-19T06:58:07.486Z,96509.60
2023-01-19T07:00:34.221Z,96504.20
2023-01-19T07:03:01.259Z,96510.00
2023-01-19T07:05:28.628Z,96506.20
2023-01-19T07:07:56.608Z,96507.40
2023-01-19T07:10:24.979Z,96509.80
2023-01-19T07:12:51.821Z,96494.20
2023-01-19T07:15:22.675Z,96512.60
2023-01-19T07:17:49.811Z,96509.40
2023-01-19T07:20:17.671Z,96514.40
2023-01-19T07:22:46.686Z,96517.20
2023-01-19T07:25:14.065Z,96517.40
2023-01-19T07:27:40.919Z,96517.20
2023-01-19T07:30:08.821Z,96522.00
2023-01-19T07:32:36.181Z,96528.60
2023-01-19T07:35:03.432Z,96535.60
2023-01-19T07:37:30.246Z,96533.60
2023-01-19T07:39:57.107Z,96529.00
2023-01-19T07:42:23.869Z,96524.60
2023-01-19T07:44:51.191Z,96533.20
2023-01-19T07:47:18.275Z,96530.00
2023-01-19T07:49:44.999Z,96533.60
2023-01-19T07:52:11.765Z,96532.60
2023-01-19T07:54:38.590Z,96535.60
2023-01-19T07:57:05.362Z,96535.60
2023-01-19T07:59:32.465Z,96532.40
2023-01-19T08:01:59.942Z,96532.00
2023-01-19T08:04:28.555Z,96531.80
2023-01-19T08:06:56.505Z,96531.60
2023-01-19T08:09:24.478Z,96535.20
2023-01-19T08:11:51.483Z,96537.40
2023-01-19T08:14:18.188Z,96534.20
2023-01-19T08:16:44.995Z,96521.20
2023-01-19T08:19:12.228Z,96534.20
2023-01-19T08:21:39.086Z,96540.80
2023-01-19T08:24:06.386Z,96542.80
2023-01-19T08:26:35.435Z,96544.00
2023-01-19T08:29:04.757Z,96549.20
2023-01-19T08:31:32.139Z,96558.60
2023-01-19T08:33:59.116Z,96558.00
2023-01-19T08:36:26.127Z,96563.60
2023-01-19T08:38:53.407Z,96565.20
2023-01-19T08:41:20.577Z,96568.40
2023-01-19T08:43:47.742Z,96572.40
2023-01-19T08:46:21.358Z,96576.00
2023-01-19T08:48:50.890Z,96583.20
2023-01-19T08:51:18.597Z,96583.00
2023-01-19T08:53:45.495Z,96581.40
2023-01-19T08:56:13.912Z,96585.00
2023-01-19T08:58:43.123Z,96591.60
2023-01-19T09:01:15.009Z,96595.40
2023-01-19T09:03:41.919Z,96596.60
2023-01-19T09:06:10.130Z,96601.80
2023-01-19T09:08:37.218Z,96608.40
2023-01-19T09:11:05.408Z,96605.00
2023-01-19T09:13:32.127Z,96609.00
2023-01-19T09:15:58.919Z,96615.40
2023-01-19T09:18:25.847Z,96620.40
2023-01-19T09:20:52.656Z,96624.00
2023-01-19T09:23:20.957Z,96628.80
2023-01-19T09:25:48.628Z,96626.40
2023-01-19T09:28:17.878Z,96631.20
2023-01-19T09:30:45.520Z,96629.60
2023-01-19T09:33:15.312Z,96634.20
2023-01-19T09:35:43.553Z,96640.00
2023-01-19T09:38:10.572Z,96641.00
2023-01-19T09:40:54.494Z,96641.20
2023-01-19T09:43:42.891Z,96638.40
2023-01-19T09:46:12.732Z,96639.40
2023-01-19T09:48:45.873Z,96637.80
2023-01-19T09:51:17.548Z,96641.80
2023-01-19T09:54:19.915Z,96637.00
2023-01-19T09:56:52.129Z,96637.80
2023-01-19T09:59:29.307Z,96632.60
2023-01-19T10:01:56.186Z,96631.20
2023-01-19T10:04:41.260Z,96634.20
2023-01-19T10:07:14.004Z,96632.40
2023-01-19T10:10:03.649Z,96633.80
2023-01-19T10:13:10.450Z,96630.00
2023-01-19T10:15:44.965Z,96637.40
2023-01-19T10:18:17.796Z,96636.60
2023-01-19T10:20:53.593Z,96637.40
2023-01-19T10:23:34.651Z,96636.60
2023-01-19T10:26:08.177Z,96631.60
2023-01-19T10:28:38.166Z,96636.40
2023-01-19T10:31:06.446Z,96626.20
2023-01-19T10:33:35.139Z,96629.80
2023-01-19T10:36:15.363Z,96631.40
2023-01-19T10:38:42.708Z,96637.40
2023-01-19T10:41:17.811Z,96637.40
2023-01-19T10:43:46.307Z,96636.80
2023-01-19T10:46:25.501Z,96635.60
2023-01-19T10:48:54.536Z,96629.20
2023-01-19T10:51:21.599Z,96635.40
2023-01-19T10:54:00.470Z,96641.00
2023-01-19T10:56:37.350Z,96636.20
2023-01-19T10:59:07.098Z,96639.60
2023-01-19T11:01:37.191Z,96639.60
2023-01-19T11:04:26.874Z,96637.20
2023-01-19T11:07:13.529Z,96636.40
2023-01-19T11:09:40.376Z,96638.40
2023-01-19T11:12:16.824Z,96640.20
2023-01-19T11:14:43.811Z,96643.00
2023-01-19T11:17:20.683Z,96645.40
2023-01-19T11:20:02.371Z,96650.80
2023-01-19T11:22:33.113Z,96647.40
2023-01-19T11:25:02.669Z,96652.20
2023-01-19T11:27:33.586Z,96648.40
2023-01-19T11:30:09.910Z,96647.80
2023-01-19T11:32:37.334Z,96650.00
2023-01-19T11:35:35.540Z,96645.00
2023-01-19T11:38:11.940Z,96642.40
2023-01-19T11:40:39.415Z,96643.00
2023-01-19T11:43:06.313Z,96647.00
2023-01-19T11:45:34.802Z,96646.00
2023-01-19T11:48:05.705Z,96646.20
2023-01-19T11:50:37.492Z,96642.80
2023-01-19T11:53:13.175Z,96645.40
2023-01-19T11:55:59.132Z,96646.00
2023-01-19T11:58:26.774Z,96652.40
2023-01-19T12:01:06.571Z,96648.00
2023-01-19T12:03:39.449Z,96651.40
2023-01-19T12:06:16.967Z,96648.20
2023-01-19T12:08:49.533Z,96646.20
2023-01-19T12:11:21.526Z,96646.40
2023-01-19T12:13:49.381Z,96643.00
2023-01-19T12:16:20.678Z,96645.60
2023-01-19T12:19:00.205Z,96648.00
2023-01-19T12:21:27.524Z,96645.00
2023-01-19T12:24:06.186Z,96648.40
2023-01-19T12:26:35.376Z,96645.20
2023-01-19T12:29:18.427Z,96645.40
2023-01-19T12:31:45.335Z,96649.00
2023-01-19T12:34:31.573Z,96651.60
2023-01-19T12:37:03.904Z,96645.40
2023-01-19T12:39:32.853Z,96648.40
2023-01-19T12:42:13.183Z,96646.40
2023-01-19T12:44:41.828Z,96644.60
2023-01-19T12:47:13.121Z,96652.60
2023-01-19T12:49:46.286Z,96647.00
2023-01-19T12:52:34.349Z,96654.00
2023-01-19T12:55:13.591Z,96650.60
2023-01-19T12:57:51.963Z,96649.80
2023-01-19T13:00:21.645Z,96651.60
2023-01-19T13:02:56.765Z,96652.20
2023-01-19T13:05:45.019Z,96652.20
2023-01-19T13:08:12.635Z,96652.00
2023-01-19T13:11:09.908Z,96654.80
2023-01-19T13:13:45.163Z,96656.60
2023-01-19T13:16:21.478Z,96656.60
2023-01-19T13:18:57.636Z,96648.00
2023-01-19T13:21:36.786Z,96657.40
2023-01-19T13:24:06.256Z,96655.60
2023-01-19T13:26:42.531Z,96657.40
2023-01-19T13:29:32.208Z,96657.40
2023-01-19T13:32:04.284Z,96660.60
2023-01-19T13:34:40.328Z,96664.80
2023-01-19T13:37:18.445Z,96665.00
2023-01-19T13:39:48.960Z,96663.60
2023-01-19T13:42:37.008Z,96666.20
2023-01-19T13:45:17.801Z,96669.60
2023-01-19T13:47:48.218Z,96670.20
2023-01-19T13:50:32.722Z,96668.40
2023-01-19T13:53:00.172Z,96668.40
2023-01-19T13:55:29.283Z,96674.00
2023-01-19T13:57:57.250Z,96673.80
2023-01-19T14:00:24.186Z,96681.80
2023-01-19T14:03:02.593Z,96681.80
2023-01-19T14:05:29.493Z,96679.60
2023-01-19T14:08:08.865Z,96683.00
2023-01-19T14:10:37.586Z,96680.40
2023-01-19T14:13:25.952Z,96682.60
2023-01-19T14:15:56.107Z,96685.00
2023-01-19T14:18:31.463Z,96689.40
2023-01-19T14:21:12.131Z,96688.60
2023-01-19T14:23:47.139Z,96687.60
2023-01-19T14:26:43.660Z,96690.20
2023-01-19T14:29:10.343Z,96693.00
2023-01-19T14:32:13.602Z,96697.20
2023-01-19T14:35:09.957Z,96698.40
2023-01-19T14:37:44.644Z,96700.40
2023-01-19T14:40:11.703Z,96698.80
2023-01-19T14:42:42.456Z,96701.60
2023-01-19T14:45:22.562Z,96704.20
2023-01-19T14:48:00.225Z,96708.80
2023-01-19T14:50:37.782Z,96710.40
2023-01-19T14:53:26.667Z,96713.60
2023-01-19T14:56:01.980Z,96705.20
2023-01-19T14:58:32.496Z,96711.60
2023-01-19T15:00:59.663Z,96711.60
2023-01-19T15:03:43.603Z,96717.20
2023-01-19T15:06:17.219Z,96722.60
2023-01-19T15:08:45.300Z,96723.00
2023-01-19T15:11:21.938Z,96727.60
2023-01-19T15:13:49.297Z,96726.60
2023-01-19T15:16:16.770Z,96729.00
2023-01-19T15:18:43.577Z,96733.60
2023-01-19T15:21:15.445Z,96737.60
2023-01-19T15:23:42.469Z,96741.60
2023-01-19T15:26:16.252Z,96744.60
2023-01-19T15:28:43.370Z,96745.20
2023-01-19T15:31:22.007Z,96749.00
2023-01-19T15:33:49.144Z,96751.20
2023-01-19T15:36:18.577Z,96755.00
2023-01-19T15:38:46.394Z,96760.40
2023-01-19T15:41:15.278Z,96764.60
2023-01-19T15:43:42.052Z,96765.20
2023-01-19T15:46:13.312Z,96766.20
2023-01-19T15:48:40.057Z,96767.40
2023-01-19T15:51:14.318Z,96756.20
2023-01-19T15:53:42.284Z,96774.80
2023-01-19T15:56:16.914Z,96779.20
2023-01-19T15:58:44.576Z,96781.20
2023-01-19T16:01:16.616Z,96784.00
2023-01-19T16:03:43.788Z,96792.20
2023-01-19T16:06:10.850Z,96792.20
2023-01-19T16:08:37.887Z,96790.20
2023-01-19T16:11:12.717Z,96776.40
2023-01-19T16:13:40.127Z,96795.20
2023-01-19T16:16:18.306Z,96795.00
2023-01-19T16:18:45.418Z,96797.00
2023-01-19T16:21:12.674Z,96796.80
2023-01-19T16:23:39.618Z,96796.40
2023-01-19T16:26:22.230Z,96804.60
2023-01-19T16:28:48.971Z,96804.40
2023-01-19T16:31:16.740Z,96807.00
2023-01-19T16:33:45.665Z,96803.40
2023-01-19T16:36:21.636Z,96807.00
2023-01-19T16:38:48.385Z,96811.40
2023-01-19T16:41:16.115Z,96816.80
2023-01-19T16:43:43.049Z,96816.80
2023-01-19T16:46:19.124Z,96821.20
2023-01-19T16:48:45.835Z,96824.80
2023-01-19T16:51:12.648Z,96823.80
2023-01-19T16:53:39.612Z,96824.40
2023-01-19T16:56:08.537Z,96830.40
2023-01-19T16:58:38.395Z,96821.20
2023-01-19T17:01:14.082Z,96827.80
2023-01-19T17:03:41.733Z,96827.40
2023-01-19T17:06:11.431Z,96825.40
2023-01-19T17:08:39.161Z,96829.60
2023-01-19T17:11:21.959Z,96827.20
2023-01-19T17:14:03.067Z,96827.40
2023-01-19T17:16:31.881Z,96831.20
2023-01-19T17:19:00.484Z,96826.20
2023-01-19T17:21:28.499Z,96828.80
2023-01-19T17:23:57.029Z,96830.20
2023-01-19T17:26:31.273Z,96839.80
2023-01-19T17:29:00.738Z,96827.20
2023-01-19T17:31:28.309Z,96841.00
2023-01-19T17:33:55.691Z,96843.40
2023-01-19T17:36:25.508Z,96843.40
2023-01-19T17:38:55.400Z,96846.40
2023-01-19T17:41:28.076Z,96842.40
2023-01-19T17:43:56.851Z,96843.20
2023-01-19T17:46:26.370Z,96840.80
2023-01-19T17:49:02.004Z,96839.20
2023-01-19T17:51:31.038Z,96839.00
2023-01-19T17:53:58.751Z,96840.00
2023-01-19T17:56:30.026Z,96843.40
2023-01-19T17:58:58.370Z,96841.40
2023-01-19T18:01:31.277Z,96842.20
2023-01-19T18:03:59.843Z,96842.60
2023-01-19T18:06:27.913Z,96839.60
2023-01-19T18:08:54.990Z,96840.20
2023-01-19T18:11:21.888Z,96842.00
2023-01-19T18:13:50.077Z,96838.80
2023-01-19T18:16:26.245Z,96843.40
2023-01-19T18:18:55.421Z,96845.80
2023-01-19T18:21:24.750Z,96848.20
2023-01-19T18:23:52.306Z,96852.00
2023-01-19T18:26:21.886Z,96852.80
2023-01-19T18:28:49.157Z,96851.40
2023-01-19T18:31:18.991Z,96854.80
2023-01-19T18:33:48.820Z,96858.00
2023-01-19T18:36:17.369Z,96850.40
2023-01-19T18:38:44.817Z,96853.00
2023-01-19T18:41:14.779Z,96856.40
2023-01-19T18:43:43.172Z,96855.40
2023-01-19T18:46:11.211Z,96851.40
2023-01-19T18:48:39.804Z,96848.60
2023-01-19T18:51:09.481Z,96850.40
2023-01-19T18:53:36.548Z,96851.40
2023-01-19T18:56:04.373Z,96855.60
2023-01-19T18:58:32.795Z,96852.20
2023-01-19T19:01:01.752Z,96851.80
2023-01-19T19:03:29.815Z,96854.20
2023-01-19T19:05:57.749Z,96851.60
2023-01-19T19:08:25.464Z,96842.40
2023-01-19T19:10:53.054Z,96849.20
2023-01-19T19:13:21.958Z,96840.40
2023-01-19T19:15:50.615Z,96839.80
2023-01-19T19:18:17.433Z,96838.60
2023-01-19T19:20:44.596Z,96840.40
2023-01-19T19:23:11.802Z,96835.40
2023-01-19T19:25:39.171Z,96833.80
2023-01-19T19:28:06.354Z,96832.00
2023-01-19T19:30:34.794Z,96828.00
2023-01-19T19:33:01.749Z,96828.80
2023-01-19T19:35:28.556Z,96823.00
2023-01-19T19:37:57.853Z,96821.60
2023-01-19T19:40:26.299Z,96817.40
2023-01-19T19:42:53.476Z,96809.60
2023-01-19T19:45:20.297Z,96808.00
2023-01-19T19:47:47.018Z,96803.00
2023-01-19T19:50:14.596Z,96805.20
2023-01-19T19:52:42.368Z,96805.40
2023-01-19T19:55:11.228Z,96804.60
2023-01-19T19:57:38.387Z,96805.00
2023-01-19T20:00:06.457Z,96809.00
2023-01-19T20:02:39.030Z,96803.20
2023-01-19T20:05:06.131Z,96793.40
2023-01-19T20:07:33.347Z,96791.20
2023-01-19T20:10:00.106Z,96791.40
2023-01-19T20:12:27.434Z,96788.80
2023-01-19T20:14:54.267Z,96794.00
2023-01-19T20:17:21.114Z,96796.00
2023-01-19T20:19:49.051Z,96803.00
2023-01-19T20:22:16.333Z,96811.60
2023-01-19T20:24:43.037Z,96810.40
2023-01-19T20:27:09.701Z,96823.80
2023-01-19T20:29:36.535Z,96824.20
2023-01-19T20:32:03.314Z,96821.40
2023-01-19T20:34:33.742Z,96817.40
2023-01-19T20:37:01.853Z,96814.20
2023-01-19T20:39:33.219Z,96811.40
2023-01-19T20:42:01.112Z,96809.80
2023-01-19T20:44:28.162Z,96809.80
2023-01-19T20:46:55.540Z,96808.80
2023-01-19T20:49:22.654Z,96815.40
2023-01-19T20:51:51.339Z,96826.80
2023-01-19T20:54:20.293Z,96838.20
2023-01-19T20:56:47.471Z,96846.60
2023-01-19T20:59:14.230Z,96858.00
2023-01-19T21:01:41.926Z,96866.60
2023-01-19T21:04:09.321Z,96868.80
2023-01-19T21:06:36.483Z,96871.00
2023-01-19T21:09:04.580Z,96873.80
2023-01-19T21:11:31.491Z,96876.80
2023-01-19T21:13:58.568Z,96880.60
2023-01-19T21:16:30.722Z,96883.80
2023-01-19T21:18:58.902Z,96884.40
2023-01-19T21:21:30.771Z,96876.60
2023-01-19T21:23:59.882Z,96872.00
2023-01-19T21:26:29.903Z,96876.00
2023-01-19T21:29:02.042Z,96876.40
2023-01-19T21:31:29.401Z,96878.40
2023-01-19T21:33:57.740Z,96879.20
2023-01-19T21:36:24.908Z,96878.40
2023-01-19T21:38:52.509Z,96879.80
2023-01-19T21:41:19.876Z,96872.60
2023-01-19T21:43:47.700Z,96873.40
2023-01-19T21:46:19.871Z,96875.00
2023-01-19T21:48:47.207Z,96871.60
2023-01-19T21:51:15.139Z,96870.60
2023-01-19T21:53:42.335Z,96862.80
2023-01-19T21:56:09.998Z,96866.00
2023-01-19T21:58:37.107Z,96867.60
2023-01-19T22:01:10.900Z,96865.40
2023-01-19T22:03:37.841Z,96864.20
2023-01-19T22:06:06.509Z,96859.20
2023-01-19T22:08:33.705Z,96854.00
2023-01-19T22:11:05.537Z,96855.60
2023-01-19T22:13:33.782Z,96854.40
2023-01-19T22:16:02.228Z,96857.00
2023-01-19T22:18:29.641Z,96862.00
2023-01-19T22:20:56.656Z,96861.40
2023-01-19T22:23:23.583Z,96860.80
2023-01-19T22:25:50.285Z,96856.60
2023-01-19T22:28:16.976Z,96857.00
2023-01-19T22:30:43.897Z,96856.60
2023-01-19T22:33:10.688Z,96853.00
2023-01-19T22:35:37.486Z,96850.80
2023-01-19T22:38:04.184Z,96846.20
2023-01-19T22:40:30.864Z,96844.80
2023-01-19T22:42:57.503Z,96840.40
2023-01-19T22:45:24.376Z,96839.40
2023-01-19T22:47:51.024Z,96840.80
2023-01-19T22:50:17.742Z,96843.80
2023-01-19T22:52:44.465Z,96847.00
2023-01-19T22:55:11.726Z,96845.80
2023-01-19T22:57:39.681Z,96845.60
2023-01-19T23:00:10.474Z,96844.00
2023-01-19T23:02:37.117Z,96842.80
2023-01-19T23:05:04.249Z,96841.80
2023-01-19T23:07:30.966Z,96841.40
2023-01-19T23:09:57.657Z,96838.80
2023-01-19T23:12:24.338Z,96843.40
2023-01-19T23:14:51.158Z,96836.80
2023-01-19T23:17:17.903Z,96833.80
2023-01-19T23:19:44.628Z,96829.20
2023-01-19T23:22:11.272Z,96828.20
2023-01-19T23:24:38.020Z,96824.80
2023-01-19T23:27:04.729Z,96828.20
2023-01-19T23:29:31.498Z,96828.60
2023-01-19T23:31:58.163Z,96829.60
2023-01-19T23:34:24.976Z,96834.20
2023-01-19T23:36:51.821Z,96832.80
2023-01-19T23:39:21.138Z,96832.80
2023-01-19T23:41:48.984Z,96833.40
2023-01-19T23:44:17.247Z,96829.40
2023-01-19T23:46:44.531Z,96827.20
2023-01-19T23:49:12.332Z,96822.80
2023-01-19T23:51:40.079Z,96830.40
2023-01-19T23:54:06.841Z,96831.20
2023-01-19T23:56:36.118Z,96831.60
2023-01-19T23:59:04.280Z,96833.20
